Grant, Indiana
Current Conditions -  °F | °C
As of 4:35 PM on Friday 28 Nov 2014 (Local Time) from KDCY Reporting Station
Clear Clear  
Wind Chill: 32°   Ceiling: Unl
Heat Index: 39°   Visibility: 10mi
Dew Point: 29°   Wind: 13mph
Humidity: 66%   Direction: 170°S
Pressure: 30.11"   Gusts: NA
Location:  39.0399°N, 87.0482°W
Report Text: KDCY 282135Z AUTO 17011KT 10SM CLR 04/M02 A3011 RMK AO2 T00401018
Loading
Personal Weather Stations






























Interactive Weather Map New forecast layout! Learn more

10-Day Weather Forecast

Advertisements
Track Severe Weather on mobile